• Join FlightAware (Why Join?)
  • Login
  • US Flag 
01:22PM EDT


 

Airport Tracker/Info


-or-


 

Live Flight TrackerFlight Track Log ✈ F-GSPR ✈ 30-Apr-2013 ✈ LFPG / CDG - KJFK

Flight Track Log - Related Links

Times and Time Zones

All times are in EDT time to prevent confusion due to time zone crossing. See the F-GSPR flight status page for this flight to view local times or setup timezone preferences in your user account.

Time Position Orientation Groundspeed Altitude Reporting Facility
EDT Latitude Longitude Course Direction KTS MPH feet Rate Location/Type
10:57AM 49.4871 0.4618 290° West  Level FlightAware Approximate
10:58AM 49.5195 0.2997 284° West  Level FlightAware Approximate
10:59AM 49.5547 0.1384 293° West  Level FlightAware Approximate
11:00AM 49.5962 -0.0199 290° West  Level FlightAware Approximate
11:03AM 47.5585 -2.4205 290° West  Level Estimated
11:04AM 47.5961 -2.5749 290° West  Level Estimated
11:05AM 47.6335 -2.7295 290° West  Level Estimated
11:05AM 49.0228 2.5524 62° Northeast 159 183 400  Level FlightAware ADS-B
11:05AM 49.0238 2.5692 85° East 157 181 1,100 2,760 Climbing FlightAware ADS-B
11:05AM 49.0246 2.5856 86° East 157 181 1,800 2,400 Climbing FlightAware ADS-B
11:05AM 49.0253 2.6023 86° East 160 184 2,300 1,800 Climbing FlightAware ADS-B
11:06AM 49.0261 2.6203 86° East 162 186 2,700 1,860 Climbing FlightAware ADS-B
11:06AM 49.0269 2.6359 86° East 161 185 3,200 1,800 Climbing FlightAware ADS-B
11:06AM 49.0272 2.6423 86° East 165 190 3,300 1,080 Climbing FlightAware ADS-B
11:06AM 49.0279 2.6548 85° East 178 205 3,500 840 Climbing FlightAware ADS-B
11:06AM 49.0285 2.6684 86° East 189 217 3,600 840 Climbing FlightAware ADS-B
11:07AM 49.0299 2.6907 85° East 204 235 3,900 1,140 Climbing FlightAware ADS-B
11:07AM 49.0309 2.7058 84° East 216 249 4,100 720 Climbing FlightAware ADS-B
11:07AM 49.0325 2.7299 84° East 236 272 4,200 900 Climbing FlightAware ADS-B
11:07AM 49.0333 2.7372 81° East 239 275 4,400 1,500 Climbing FlightAware ADS-B
11:07AM 49.0343 2.7424 73° East 240 276 4,400 1,500 Level FlightAware ADS-B
11:07AM 49.0359 2.7483 68° East 240 276 4,600 3,000 Climbing FlightAware ADS-B
11:07AM 49.0383 2.7541 58° Northeast 239 275 4,800 2,520 Climbing FlightAware ADS-B
11:07AM 49.0405 2.7582 51° Northeast 240 276 4,900 1,980 Climbing FlightAware ADS-B
11:07AM 49.0429 2.7620 46° Northeast 243 280 5,000 1,980 Climbing FlightAware ADS-B
11:07AM 49.0461 2.7659 39° Northeast 247 284 5,100 1,680 Climbing FlightAware ADS-B
11:07AM 49.0494 2.7689 31° Northeast 249 287 5,200 1,500 Climbing FlightAware ADS-B
11:08AM 49.0534 2.7717 25° Northeast 252 290 5,300 1,320 Climbing FlightAware ADS-B
11:08AM 49.0594 2.7743 16° North 259 298 5,400 1,320 Climbing FlightAware ADS-B
11:08AM 49.0646 2.7754 North 268 308 5,500 1,320 Climbing FlightAware ADS-B
11:08AM 49.0708 2.7751 358° North 275 316 5,600 1,980 Climbing FlightAware ADS-B
11:08AM 49.0764 2.7733 349° North 278 320 5,800 1,980 Climbing FlightAware ADS-B
11:08AM 49.0818 2.7705 341° North 281 323 5,900 2,520 Climbing FlightAware ADS-B
11:08AM 49.1016 2.7414 316° Northwest 281 323 6,900 2,880 Climbing FlightAware ADS-B
11:08AM 49.1042 2.7312 291° West 284 327 7,200 2,700 Climbing FlightAware ADS-B
11:08AM 49.1056 2.7214 282° West 284 327 7,400 2,220 Climbing FlightAware ADS-B
11:09AM 49.1061 2.7143 276° West 285 328 7,500 2,220 Climbing FlightAware ADS-B
11:09AM 49.1061 2.7044 270° West 287 330 7,700 2,160 Climbing FlightAware ADS-B
11:09AM 49.1055 2.6931 265° West 289 333 7,900 2,100 Climbing FlightAware ADS-B
11:09AM 49.1039 2.6697 264° West 290 334 8,300 2,520 Climbing FlightAware ADS-B
11:09AM 49.0999 2.6415 258° West 288 331 9,000 2,580 Climbing FlightAware ADS-B
11:09AM 49.0968 2.6253 254° West 289 333 9,300 2,220 Climbing FlightAware ADS-B
11:10AM 49.0897 2.5944 251° West 288 331 9,900 1,860 Climbing FlightAware ADS-B
11:10AM 49.0732 2.5361 247° West 301 346 10,800 1,620 Climbing FlightAware ADS-B
11:11AM 49.0550 2.4747 246° West 321 369 11,600 1,620 Climbing FlightAware ADS-B
11:11AM 49.0291 2.3840 247° West 353 406 12,800 1,920 Climbing FlightAware ADS-B
11:11AM 49.0249 2.3627 253° West 355 409 13,200 3,000 Climbing FlightAware ADS-B
11:12AM 49.0223 2.3345 262° West 356 410 13,800 2,400 Climbing FlightAware ADS-B
11:12AM 49.0218 2.2609 269° West 373 429 14,800 2,280 Climbing FlightAware ADS-B
11:13AM 49.0242 2.1809 273° West 378 435 16,100 480 Climbing FlightAware ADS-B
11:13AM 49.0249 2.1332 273° West 386 444 15,200 2,220 Descending FlightAware UK
11:13AM 49.0274 2.0954 273° West 385 443 17,300 4,620 Climbing FlightAware ADS-B
11:14AM 49.0299 2.0127 273° West 388 447 18,600 480 Climbing FlightAware ADS-B
11:14AM 49.0312 1.9716 273° West 402 463 17,700 2,280 Descending FlightAware UK
11:14AM 49.0323 1.9282 273° West 392 451 19,800 1,980 Climbing FlightAware ADS-B
11:14AM 49.0341 1.8727 273° West 406 467 18,900 1,980 Descending FlightAware UK
11:15AM 49.0355 1.8196 273° West 401 461 21,100 3,840 Climbing FlightAware ADS-B
11:15AM 49.0379 1.7330 272° West 408 470 22,000 1,740 Climbing FlightAware ADS-B
11:16AM 49.0404 1.6448 273° West 415 478 22,900 300 Climbing FlightAware ADS-B
11:16AM 49.0426 1.5619 273° West 424 488 22,300 1,800 Descending FlightAware UK
11:16AM 49.0435 1.5289 273° West 422 486 24,100 1,560 Climbing FlightAware ADS-B
11:17AM 49.0458 1.4372 273° West 434 499 23,400  Descending FlightAware UK
11:17AM 49.0476 1.3635 272° West 438 504 24,100 1,620 Climbing FlightAware UK
11:18AM 49.0510 1.2166 272° West 446 513 25,400 1,500 Climbing FlightAware UK
11:18AM 49.0522 1.1601 272° West 448 516 25,800 1,380 Climbing FlightAware UK
11:19AM 49.0541 1.0844 272° West 452 520 26,400 1,440 Climbing FlightAware UK
11:20AM 49.0573 0.9504 272° West 458 527 27,400 1,380 Climbing FlightAware UK
11:20AM 49.0597 0.8329 272° West 464 534 28,200 1,320 Climbing FlightAware UK
11:20AM 49.0609 0.7738 272° West 466 536 28,600 1,260 Climbing FlightAware UK
11:21AM 49.0625 0.6951 272° West 470 541 29,100 1,080 Climbing FlightAware UK
11:22AM 49.0669 0.4519 272° West 476 548 30,400 720 Climbing FlightAware UK
11:23AM 49.0699 0.2462 271° West 484 557 30,800 660 Climbing FlightAware UK
11:23AM 49.0707 0.1836 271° West 488 562 31,300 1,980 Climbing FlightAware UK
11:24AM 49.0726 0.1023 272° West 482 555 32,200 1,800 Climbing FlightAware UK
11:24AM 49.0811 0.0421 282° West 486 559 32,600 1,860 Climbing FlightAware UK
11:25AM 49.0965 -0.0761 281° West 478 550 33,900 1,800 Climbing FlightAware UK
11:25AM 49.1057 -0.1544 280° West 474 545 34,400 660 Climbing FlightAware UK
11:25AM 49.1116 -0.2130 279° West 472 543 34,400  Level FlightAware UK
11:26AM 49.1177 -0.2718 279° West 470 541 34,400  Level FlightAware UK
11:26AM 49.1247 -0.3298 280° West 472 543 34,400  Level FlightAware UK
11:26AM 49.1389 -0.4269 283° West 472 543 34,400  Level FlightAware UK
11:27AM 49.1575 -0.5629 282° West 470 541 34,400  Level FlightAware UK
11:29AM 49.1928 -0.8369 281° West 472 543 34,500  Climbing FlightAware UK
11:29AM 49.2003 -0.8960 281° West 472 543 34,500  Level FlightAware UK
11:29AM 49.2078 -0.9549 281° West 476 548 34,500  Level FlightAware UK
11:31AM 49.2603 -1.3674 281° West 478 550 34,500  Level FlightAware UK
11:32AM 49.2676 -1.4260 281° West 476 548 34,500  Level FlightAware UK
11:32AM 49.2771 -1.5035 281° West 474 545 34,500 -180 Level FlightAware UK
11:32AM 49.2871 -1.5817 281° West 476 548 34,400 -180 Descending FlightAware UK
11:33AM 49.2945 -1.6402 281° West 474 545 34,400  Level FlightAware UK
11:33AM 49.3018 -1.6987 281° West 474 545 34,400 120 Level FlightAware UK
11:33AM 49.3090 -1.7574 281° West 474 545 34,500 120 Climbing FlightAware UK
11:34AM 49.3183 -1.8351 280° West 474 545 34,500  Level FlightAware UK
11:34AM 49.3254 -1.8942 280° West 476 548 34,500  Level FlightAware UK
11:34AM 49.3370 -1.9937 280° West 476 548 34,500 -120 Level FlightAware UK
11:35AM 49.3463 -2.0723 280° West 474 545 34,400 -120 Descending FlightAware UK
11:35AM 49.3604 -2.1902 280° West 480 552 34,400  Level FlightAware UK
11:36AM 49.3767 -2.3271 280° West 476 548 34,400  Level FlightAware UK
11:37AM 49.3918 -2.4622 280° West 476 548 34,400  Level FlightAware UK
11:37AM 49.3985 -2.5213 280° West 476 548 34,400  Level FlightAware UK
11:38AM 49.4161 -2.6765 280° West 478 550 34,400 60 Level FlightAware UK
11:38AM 49.4228 -2.7348 280° West 472 543 34,500 120 Climbing FlightAware UK
11:39AM 49.4293 -2.7932 280° West 474 545 34,500  Level FlightAware UK
11:39AM 49.4358 -2.8515 280° West 476 548 34,500  Level FlightAware UK
11:40AM 49.4510 -2.9870 280° West 474 545 34,500  Level FlightAware UK
11:40AM 49.4573 -3.0451 280° West 474 545 34,500  Level FlightAware UK
11:40AM 49.4657 -3.1227 279° West 472 543 34,500  Level FlightAware UK
11:41AM 49.4739 -3.1996 279° West 474 545 34,500  Level FlightAware UK
11:41AM 49.4823 -3.2771 279° West 474 545 34,500  Level FlightAware UK
11:41AM 49.4906 -3.3548 279° West 474 545 34,500  Level FlightAware UK
11:42AM 49.4967 -3.4125 279° West 476 548 34,500  Level FlightAware UK
11:42AM 49.5072 -3.5097 280° West 474 545 34,500  Level FlightAware UK
11:43AM 49.5133 -3.5679 279° West 474 545 34,500  Level FlightAware UK
11:43AM 49.5193 -3.6261 279° West 474 545 34,500  Level FlightAware UK
11:43AM 49.5273 -3.7036 279° West 474 545 34,500  Level FlightAware UK
11:44AM 49.5352 -3.7812 279° West 474 545 34,500  Level FlightAware UK
11:44AM 49.5418 -3.8391 280° West 474 545 34,500  Level FlightAware UK
11:44AM 49.5505 -3.8963 283° West 476 548 34,500 -180 Level FlightAware UK
11:45AM 49.5612 -3.9733 282° West 476 548 34,400 -180 Descending FlightAware UK
11:45AM 49.5688 -4.0308 281° West 474 545 34,400 120 Level FlightAware UK
11:45AM 49.5762 -4.0884 281° West 474 545 34,500 120 Climbing FlightAware UK
11:46AM 49.5833 -4.1453 281° West 474 545 34,500 -120 Level FlightAware UK
11:46AM 49.5976 -4.2603 281° West 474 545 34,400 -120 Descending FlightAware UK
11:47AM 49.6094 -4.3564 281° West 474 545 34,400 120 Level FlightAware UK
11:47AM 49.6164 -4.4140 281° West 474 545 34,500 60 Climbing FlightAware UK
11:48AM 49.6375 -4.5868 281° West 474 545 34,500  Level FlightAware UK
11:48AM 49.6445 -4.6445 281° West 472 543 34,500  Level FlightAware UK
11:48AM 49.6514 -4.7022 281° West 470 541 34,500  Level FlightAware UK
11:49AM 49.6584 -4.7600 281° West 470 541 34,500  Level FlightAware UK
11:49AM 49.6654 -4.8172 281° West 472 543 34,500  Level FlightAware UK
11:49AM 49.6723 -4.8753 280° West 474 545 34,500  Level FlightAware UK
11:50AM 49.6793 -4.9336 280° West 474 545 34,500  Level FlightAware UK
11:50AM 49.6863 -4.9920 281° West 474 545 34,500  Level FlightAware UK
11:50AM 49.6932 -5.0504 280° West 474 545 34,500  Level FlightAware UK
11:51AM 49.6999 -5.1088 280° West 474 545 34,500  Level FlightAware UK
11:51AM 49.7067 -5.1672 280° West 474 545 34,500  Level FlightAware UK
11:51AM 49.7135 -5.2257 280° West 476 548 34,500  Level FlightAware UK
11:51AM 49.7202 -5.2843 280° West 476 548 34,500  Level FlightAware UK
11:52AM 49.7291 -5.3624 280° West 478 550 34,500  Level FlightAware UK
11:52AM 49.7357 -5.4208 280° West 476 548 34,500  Level FlightAware UK
11:52AM 49.7423 -5.4789 280° West 476 548 34,500  Level FlightAware UK
11:53AM 49.7490 -5.5369 280° West 476 548 34,500  Level FlightAware UK
11:53AM 49.7555 -5.5948 280° West 474 545 34,500  Level FlightAware UK
11:53AM 49.7619 -5.6525 280° West 474 545 34,500  Level FlightAware UK
11:54AM 49.7684 -5.7101 280° West 476 548 34,500  Level FlightAware UK
11:54AM 49.7749 -5.7678 280° West 476 548 34,500  Level FlightAware UK
11:54AM 49.7812 -5.8254 280° West 476 548 34,500  Level FlightAware UK
11:55AM 49.7876 -5.8831 280° West 474 545 34,500  Level FlightAware UK
11:55AM 49.7938 -5.9399 280° West 474 545 34,500  Level FlightAware UK
11:55AM 49.8000 -5.9974 280° West 472 543 34,500  Level FlightAware UK
11:55AM 49.8064 -6.0548 280° West 472 543 34,500  Level FlightAware UK
11:56AM 49.8126 -6.1122 280° West 472 543 34,500  Level FlightAware UK
11:56AM 49.8187 -6.1696 279° West 472 543 34,500  Level FlightAware UK
11:56AM 49.8249 -6.2272 279° West 472 543 34,500  Level FlightAware UK
11:57AM 49.8310 -6.2848 279° West 474 545 34,500  Level FlightAware UK
11:57AM 49.8370 -6.3425 279° West 474 545 34,500  Level FlightAware UK
11:57AM 49.8431 -6.4002 279° West 474 545 34,500  Level FlightAware UK
11:58AM 49.8491 -6.4578 279° West 474 545 34,500  Level FlightAware UK
11:58AM 49.8551 -6.5155 279° West 474 545 34,500  Level FlightAware UK
11:58AM 49.8613 -6.5731 279° West 476 548 34,500  Level FlightAware UK
11:58AM 49.8672 -6.6307 279° West 474 545 34,500  Level FlightAware UK
11:59AM 49.8731 -6.6883 279° West 474 545 34,500  Level FlightAware UK
11:59AM 49.8790 -6.7459 279° West 476 548 34,500  Level FlightAware UK
11:59AM 49.8848 -6.8036 279° West 474 545 34,500  Level FlightAware UK
12:00PM 49.8905 -6.8611 279° West 476 548 34,500  Level FlightAware UK
12:00PM 49.8964 -6.9186 279° West 476 548 34,500  Level FlightAware UK
12:00PM 49.9021 -6.9760 279° West 476 548 34,500  Level FlightAware UK
12:01PM 49.9077 -7.0328 279° West 476 548 34,500  Level FlightAware UK
12:01PM 49.9136 -7.0900 279° West 476 548 34,500  Level FlightAware UK
12:01PM 49.9191 -7.1473 279° West 476 548 34,500  Level FlightAware UK
12:02PM 49.9207 -7.2233 272° West 476 548 34,500  Level FlightAware UK
12:02PM 49.9187 -7.2806 267° West 474 545 34,500  Level FlightAware UK
12:02PM 49.9134 -7.3377 262° West 474 545 34,500  Level FlightAware UK
12:02PM 49.9084 -7.3945 262° West 472 543 34,500  Level FlightAware UK
12:03PM 49.9035 -7.4515 262° West 472 543 34,500  Level FlightAware UK
12:03PM 49.8984 -7.5083 262° West 472 543 34,500  Level FlightAware UK
12:03PM 49.8933 -7.5651 262° West 472 543 34,500  Level FlightAware UK
12:04PM 49.8882 -7.6220 262° West 474 545 34,500  Level FlightAware UK
12:04PM 49.8830 -7.6788 262° West 474 545 34,500  Level FlightAware UK
12:04PM 49.8776 -7.7356 262° West 472 543 34,500  Level FlightAware UK
12:05PM 49.8723 -7.7923 262° West 472 543 34,500  Level FlightAware UK
12:05PM 49.8670 -7.8491 262° West 472 543 34,500  Level FlightAware UK
12:05PM 49.8616 -7.9058 262° West 472 543 34,500  Level FlightAware UK
12:05PM 49.8561 -7.9625 262° West 472 543 34,500  Level FlightAware UK
12:06PM 49.8506 -8.0193 261° West 472 543 34,500  Level FlightAware UK
12:06PM 49.8453 -8.0760 262° West 472 543 34,500  Level FlightAware UK
12:06PM 49.8405 -8.1323 262° West 472 543 34,500  Level FlightAware UK
12:07PM 49.8356 -8.1892 262° West 474 545 34,500  Level FlightAware UK
12:07PM 49.8305 -8.2462 262° West 474 545 34,500  Level FlightAware UK
12:07PM 49.8252 -8.3032 262° West 474 545 34,500  Level FlightAware UK
12:08PM 49.8199 -8.3601 262° West 472 543 34,500  Level FlightAware UK
12:08PM 49.8145 -8.4170 262° West 474 545 34,500  Level FlightAware UK
12:08PM 49.8091 -8.4740 262° West 474 545 34,500  Level FlightAware UK
12:08PM 49.8038 -8.5309 262° West 472 543 34,500  Level FlightAware UK
12:09PM 49.7984 -8.5878 262° West 472 543 34,500  Level FlightAware UK
12:09PM 49.7930 -8.6448 262° West 472 543 34,500  Level FlightAware UK
12:09PM 49.7876 -8.7018 262° West 472 543 34,500  Level FlightAware UK
12:10PM 49.7820 -8.7587 261° West 474 545 34,500  Level FlightAware UK
12:10PM 49.7764 -8.8157 261° West 474 545 34,500  Level FlightAware UK
12:10PM 49.7709 -8.8726 261° West 474 545 34,500  Level FlightAware UK
12:11PM 49.7653 -8.9295 261° West 474 545 34,500  Level FlightAware UK
12:11PM 49.7596 -8.9863 261° West 474 545 34,500  Level FlightAware UK
12:13PM 49.8014 -9.2434 284° West  Level Estimated
12:20PM 49.9888 -10.4486 284° West  Level Estimated
12:21PM 50.0145 -10.6215 283° West  Level Estimated
12:22PM 50.0400 -10.7946 283° West  Level Estimated
12:23PM 50.0653 -10.9679 283° West  Level Estimated
12:24PM 50.0902 -11.1414 283° West  Level Estimated
12:25PM 50.1149 -11.3151 283° West  Level Estimated
12:26PM 50.1394 -11.4889 282° West  Level Estimated
12:27PM 50.1636 -11.6629 282° West  Level Estimated
12:28PM 50.1875 -11.8371 282° West  Level Estimated
12:29PM 50.2112 -12.0115 282° West  Level Estimated
12:30PM 50.2346 -12.1860 282° West  Level Estimated
12:31PM 50.2577 -12.3607 282° West  Level Estimated
12:32PM 50.2806 -12.5356 282° West  Level Estimated
12:33PM 50.3032 -12.7107 282° West  Level Estimated
12:34PM 50.3256 -12.8859 281° West  Level Estimated
12:35PM 50.3477 -13.0612 281° West  Level Estimated
12:36PM 50.3695 -13.2368 281° West  Level Estimated
12:37PM 50.3911 -13.4125 281° West  Level Estimated
12:38PM 50.4124 -13.5883 281° West  Level Estimated
12:39PM 50.4335 -13.7643 281° West  Level Estimated
12:40PM 50.4542 -13.9405 281° West  Level Estimated
12:41PM 50.4747 -14.1168 280° West  Level Estimated
12:42PM 50.4950 -14.2933 280° West  Level Estimated
12:43PM 50.5149 -14.4699 280° West  Level Estimated
12:44PM 50.5347 -14.6467 280° West  Level Estimated
12:45PM 50.5541 -14.8236 280° West  Level Estimated
12:46PM 50.5733 -15.0007 280° West  Level Estimated
12:47PM 50.5922 -15.1779 280° West  Level Estimated
12:48PM 50.6108 -15.3552 279° West  Level Estimated
12:49PM 50.6290 -15.5312 279° West  Level Estimated
12:50PM 50.6469 -15.7073 279° West  Level Estimated
12:51PM 50.6646 -15.8835 279° West  Level Estimated
12:52PM 50.6820 -16.0599 279° West  Level Estimated
12:53PM 50.6992 -16.2364 279° West  Level Estimated
12:54PM 50.7161 -16.4130 279° West  Level Estimated
12:55PM 50.7327 -16.5897 279° West  Level Estimated
12:56PM 50.7490 -16.7666 278° West  Level Estimated
12:57PM 50.7651 -16.9436 278° West  Level Estimated
12:58PM 50.7809 -17.1207 278° West  Level Estimated
12:59PM 50.7974 -17.3085 278° West  Level Estimated
01:00PM 50.8135 -17.4964 278° West  Level Estimated
01:01PM 50.8293 -17.6844 278° West  Level Estimated
01:02PM 50.8449 -17.8725 278° West  Level Estimated
01:03PM 50.8601 -18.0608 277° West  Level Estimated
01:04PM 50.8751 -18.2492 277° West  Level Estimated
01:05PM 50.8897 -18.4377 277° West  Level Estimated
01:06PM 50.9040 -18.6264 277° West  Level Estimated
01:07PM 50.9181 -18.8151 277° West  Level Estimated
01:08PM 50.9318 -19.0040 277° West  Level Estimated
01:09PM 50.9452 -19.1929 277° West  Level Estimated
01:09PM 49.0000 -20.0000 274° West 453 521 37,000  Level ETMS Enhanced Traffic Management System
01:10PM 50.9584 -19.3820 276° West  Level Estimated
01:11PM 50.9712 -19.5712 276° West  Level Estimated
01:12PM 50.9837 -19.7605 276° West  Level Estimated
01:13PM 50.9959 -19.9498 276° West  Level Estimated
01:14PM 51.0078 -20.1393 276° West  Level Estimated
01:15PM 49.0441 -21.1516 273° West 453 521 37,000  Level FlightAware Transoceanic
01:16PM 49.0504 -21.3437 273° West 453 521 37,000  Level FlightAware Transoceanic
01:17PM 49.0563 -21.5359 273° West 453 521 37,000  Level FlightAware Transoceanic
01:18PM 49.0619 -21.7281 272° West 453 521 37,000  Level FlightAware Transoceanic
01:19PM 49.0672 -21.9203 272° West 453 521 37,000  Level FlightAware Transoceanic
01:20PM 49.0721 -22.1126 272° West 453 521 37,000  Level FlightAware Transoceanic
01:21PM 49.0768 -22.3049 272° West 453 521 37,000  Level FlightAware Transoceanic
01:22PM 49.0811 -22.4973 272° West 453 521 37,000  Level FlightAware Transoceanic
01:23PM 49.0851 -22.6897 272° West 453 521 37,000  Level FlightAware Transoceanic
01:24PM 49.0887 -22.8821 272° West 453 521 37,000  Level FlightAware Transoceanic
01:25PM 49.0921 -23.0745 271° West 453 521 37,000  Level FlightAware Transoceanic
01:26PM 49.0952 -23.2670 271° West 453 521 37,000  Level FlightAware Transoceanic
01:27PM 49.0979 -23.4595 271° West 453 521 37,000  Level FlightAware Transoceanic
01:28PM 49.1003 -23.6520 271° West 453 521 37,000  Level FlightAware Transoceanic
01:29PM 49.1024 -23.8446 271° West 453 521 37,000  Level FlightAware Transoceanic
01:30PM 49.1041 -24.0371 271° West 453 521 37,000  Level FlightAware Transoceanic
01:31PM 49.1056 -24.2297 271° West 453 521 37,000  Level FlightAware Transoceanic
01:32PM 49.1067 -24.4223 270° West 453 521 37,000  Level FlightAware Transoceanic
01:33PM 49.1075 -24.6148 270° West 453 521 37,000  Level FlightAware Transoceanic
01:34PM 49.1080 -24.8074 270° West 453 521 37,000  Level FlightAware Transoceanic
01:35PM 49.1081 -25.0000 270° West 453 521 37,000  Level FlightAware Transoceanic
01:36PM 49.1080 -25.1926 270° West 453 521 37,000  Level FlightAware Transoceanic
01:37PM 49.1075 -25.3852 270° West 453 521 37,000  Level FlightAware Transoceanic
01:37PM 49.1333 -25.1167 269° West 443 510 37,000  Level ETMS Enhanced Traffic Management System
01:38PM 49.1067 -25.5777 270° West 453 521 37,000  Level FlightAware Transoceanic
01:39PM 49.1056 -25.7703 269° West 453 521 37,000  Level FlightAware Transoceanic
01:40PM 49.1041 -25.9629 269° West 453 521 37,000  Level FlightAware Transoceanic
01:41PM 49.1024 -26.1554 269° West 453 521 37,000  Level FlightAware Transoceanic
01:42PM 49.1003 -26.3480 269° West 453 521 37,000  Level FlightAware Transoceanic
01:43PM 49.1177 -26.4337 268° West 443 510 37,000  Level FlightAware Transoceanic
01:44PM 49.1143 -26.6217 268° West 443 510 37,000  Level FlightAware Transoceanic
01:45PM 49.1105 -26.8098 268° West 443 510 37,000  Level FlightAware Transoceanic
01:46PM 49.1064 -26.9978 268° West 443 510 37,000  Level FlightAware Transoceanic
01:47PM 49.1021 -27.1858 268° West 443 510 37,000  Level FlightAware Transoceanic
01:48PM 49.0974 -27.3737 268° West 443 510 37,000  Level FlightAware Transoceanic
01:49PM 49.0924 -27.5616 268° West 443 510 37,000  Level FlightAware Transoceanic
01:50PM 49.0871 -27.7495 267° West 443 510 37,000  Level FlightAware Transoceanic
01:51PM 49.0816 -27.9373 267° West 443 510 37,000  Level FlightAware Transoceanic
01:52PM 49.0757 -28.1251 267° West 443 510 37,000  Level FlightAware Transoceanic
01:53PM 49.0695 -28.3128 267° West 443 510 37,000  Level FlightAware Transoceanic
01:53PM 49.0667 -28.1667 268° West 481 554 37,000  Level ETMS Enhanced Traffic Management System
01:54PM 49.0630 -28.5005 267° West 443 510 37,000  Level FlightAware Transoceanic
01:55PM 49.0561 -28.6881 267° West 443 510 37,000  Level FlightAware Transoceanic
01:56PM 49.0490 -28.8757 267° West 443 510 37,000  Level FlightAware Transoceanic
01:57PM 49.0416 -29.0632 266° West 443 510 37,000  Level FlightAware Transoceanic
01:58PM 49.0339 -29.2507 266° West 443 510 37,000  Level FlightAware Transoceanic
01:59PM 49.0255 -29.3895 267° West 481 554 37,000  Level FlightAware Transoceanic
02:00PM 49.0173 -29.5930 266° West 481 554 37,000  Level FlightAware Transoceanic
02:01PM 49.0088 -29.7966 266° West 481 554 37,000  Level FlightAware Transoceanic
02:02PM 49.0121 -29.9792 272° West  Level Estimated
02:03PM 49.0151 -30.1618 272° West  Level Estimated
02:04PM 49.0178 -30.3445 271° West  Level Estimated
02:05PM 49.0202 -30.5272 271° West  Level Estimated
02:06PM 49.0224 -30.7099 271° West  Level Estimated
02:07PM 49.0242 -30.8926 271° West  Level Estimated
02:08PM 49.0258 -31.0753 271° West  Level Estimated
02:09PM 49.0270 -31.2581 271° West  Level Estimated
02:10PM 49.0280 -31.4408 271° West  Level Estimated
02:11PM 49.0287 -31.6236 270° West  Level Estimated
02:12PM 49.0291 -31.8063 270° West  Level Estimated
02:13PM 49.0292 -31.9891 270° West  Level Estimated
02:14PM 49.0290 -32.1719 270° West  Level Estimated
02:15PM 49.0286 -32.3546 270° West  Level Estimated
02:16PM 49.0278 -32.5374 270° West  Level Estimated
02:17PM 49.0268 -32.7201 270° West  Level Estimated
02:18PM 49.0255 -32.9029 269° West  Level Estimated
02:19PM 49.0238 -33.0856 269° West  Level Estimated
02:20PM 49.0219 -33.2683 269° West  Level Estimated
02:21PM 49.0197 -33.4510 269° West  Level Estimated
02:22PM 49.0172 -33.6337 269° West  Level Estimated
02:23PM 49.0145 -33.8163 269° West  Level Estimated
02:24PM 49.0114 -33.9990 269° West  Level Estimated
02:25PM 49.0080 -34.1816 268° West  Level Estimated
02:26PM 49.0044 -34.3642 268° West  Level Estimated
02:27PM 49.0005 -34.5468 268° West  Level Estimated
02:28PM 48.9963 -34.7293 268° West  Level Estimated
02:29PM 48.9918 -34.9118 268° West  Level Estimated
02:30PM 48.9870 -35.0943 268° West  Level Estimated
02:31PM 48.9819 -35.2767 268° West  Level Estimated
02:32PM 48.9765 -35.4591 268° West  Level Estimated
02:33PM 48.9709 -35.6415 267° West  Level Estimated
02:34PM 48.9649 -35.8238 267° West  Level Estimated
02:35PM 48.9587 -36.0060 267° West  Level Estimated
02:36PM 48.9522 -36.1883 267° West  Level Estimated
02:37PM 48.9454 -36.3704 267° West  Level Estimated
02:38PM 48.9383 -36.5526 267° West  Level Estimated
02:39PM 48.9309 -36.7346 267° West  Level Estimated
02:40PM 48.9232 -36.9166 266° West  Level Estimated
02:41PM 48.9153 -37.0986 266° West  Level Estimated
02:42PM 48.9071 -37.2805 266° West  Level Estimated
02:43PM 48.8985 -37.4623 266° West  Level Estimated
02:44PM 48.8897 -37.6441 266° West  Level Estimated
02:45PM 48.8806 -37.8258 266° West  Level Estimated
02:46PM 48.8713 -38.0075 266° West  Level Estimated
02:47PM 48.8616 -38.1890 265° West  Level Estimated
02:48PM 48.8517 -38.3705 265° West  Level Estimated
02:49PM 48.8414 -38.5519 265° West  Level Estimated
02:50PM 48.8309 -38.7333 265° West  Level Estimated
02:51PM 48.8201 -38.9146 265° West  Level Estimated
02:52PM 48.8090 -39.0958 265° West  Level Estimated
02:53PM 48.7977 -39.2769 265° West  Level Estimated
02:54PM 48.7860 -39.4579 264° West  Level Estimated
02:55PM 48.7741 -39.6389 264° West  Level Estimated
02:56PM 48.7618 -39.8197 264° West  Level Estimated
02:57PM 48.7494 -40.0005 264° West  Level Estimated
02:58PM 48.7366 -40.1812 264° West  Level Estimated
02:59PM 48.7235 -40.3618 264° West  Level Estimated
03:00PM 48.7102 -40.5423 264° West  Level Estimated
03:01PM 48.6965 -40.7227 264° West  Level Estimated
03:02PM 48.6826 -40.9030 263° West  Level Estimated
03:03PM 48.6684 -41.0832 263° West  Level Estimated
03:04PM 48.6539 -41.2633 263° West  Level Estimated
03:05PM 48.6392 -41.4433 263° West  Level Estimated
03:06PM 48.6242 -41.6231 263° West  Level Estimated
03:07PM 48.6088 -41.8029 263° West  Level Estimated
03:08PM 48.5933 -41.9826 263° West  Level Estimated
03:09PM 48.5774 -42.1621 262° West  Level Estimated
03:10PM 48.5612 -42.3416 262° West  Level Estimated
03:11PM 48.5448 -42.5209 262° West  Level Estimated
03:12PM 48.5281 -42.7001 262° West  Level Estimated
03:13PM 48.5111 -42.8792 262° West  Level Estimated
03:14PM 48.4938 -43.0582 262° West  Level Estimated
03:15PM 48.4763 -43.2370 262° West  Level Estimated
03:16PM 48.4585 -43.4157 262° West  Level Estimated
03:17PM 48.4404 -43.5943 261° West  Level Estimated
03:18PM 48.4220 -43.7728 261° West  Level Estimated
03:19PM 48.4034 -43.9511 261° West  Level Estimated
03:20PM 48.3844 -44.1293 261° West  Level Estimated
03:21PM 48.3652 -44.3074 261° West  Level Estimated
03:22PM 48.3458 -44.4854 261° West  Level Estimated
03:23PM 48.3260 -44.6632 261° West  Level Estimated
03:24PM 48.3060 -44.8408 260° West  Level Estimated
03:25PM 48.2857 -45.0183 260° West  Level Estimated
03:26PM 48.2651 -45.1957 260° West  Level Estimated
03:27PM 48.2443 -45.3729 260° West  Level Estimated
03:28PM 48.2232 -45.5500 260° West  Level Estimated
03:29PM 48.2018 -45.7270 260° West  Level Estimated
03:30PM 48.1801 -45.9038 260° West  Level Estimated
03:31PM 48.1582 -46.0804 260° West  Level Estimated
03:32PM 48.1360 -46.2569 259° West  Level Estimated
03:33PM 48.1135 -46.4332 259° West  Level Estimated
03:34PM 48.0908 -46.6094 259° West  Level Estimated
03:35PM 48.0678 -46.7854 259° West  Level Estimated
03:36PM 48.0445 -46.9613 259° West  Level Estimated
03:37PM 48.0210 -47.1370 259° West  Level Estimated
03:38PM 47.9972 -47.3126 259° West  Level Estimated
03:39PM 47.9731 -47.4879 258° West  Level Estimated
03:40PM 47.9488 -47.6632 258° West  Level Estimated
03:41PM 47.9242 -47.8382 258° West  Level Estimated
03:42PM 47.8993 -48.0131 258° West  Level Estimated
03:43PM 47.8741 -48.1878 258° West  Level Estimated
03:44PM 47.8487 -48.3624 258° West  Level Estimated
03:45PM 47.8231 -48.5368 258° West  Level Estimated
03:46PM 47.7971 -48.7110 258° West  Level Estimated
03:47PM 47.7709 -48.8850 257° West  Level Estimated
03:48PM 47.7445 -49.0588 257° West  Level Estimated
03:49PM 47.7178 -49.2325 257° West  Level Estimated
03:50PM 47.6908 -49.4060 257° West  Level Estimated
03:50PM 46.9500 -50.3000 256° West 460 529 37,000  Level Gander Center
03:51PM 47.6635 -49.5793 257° West  Level Estimated
03:51PM 46.9333 -50.4833 262° West 460 529 37,000  Level Gander Center
03:52PM 47.6361 -49.7518 257° West  Level Estimated
03:52PM 46.9000 -50.6500 254° West 460 529 37,000  Level Gander Center
03:53PM 47.6085 -49.9241 257° West  Level Estimated
03:53PM 46.8667 -50.8333 255° West 460 529 38,000  Level Gander Center
03:53PM 46.8500 -50.9667 260° West 460 529 38,000  Level Moncton Center
03:54PM 47.5805 -50.0963 257° West  Level Estimated
03:54PM 46.8167 -51.1500 255° West 470 541 38,000  Level Moncton Center
03:55PM 47.5524 -50.2683 256° West  Level Estimated
03:55PM 46.8167 -51.2333 270° West 470 541 38,000  Level Gander Center
03:56PM 46.7833 -51.4167 255° West 470 541 38,000  Level Gander Center
03:56PM 46.7667 -51.5333 258° West 470 541 38,000  Level Moncton Center
03:57PM 46.7500 -51.7167 263° West 470 541 38,000  Level Moncton Center
03:58PM 46.7333 -51.7833 250° West 470 541 38,000  Level Gander Center
03:58PM 46.7000 -51.9000 247° West 470 541 38,000  Level Moncton Center
03:59PM 46.6833 -52.0667 262° West 470 541 38,000  Level Moncton Center
04:00PM 46.6667 -52.2667 263° West 470 541 38,000  Level Moncton Center
04:01PM 46.6333 -52.4500 255° West 470 541 38,000  Level Moncton Center
04:02PM 46.6167 -52.5167 250° West 470 541 38,000  Level Gander Center
04:02PM 46.6000 -52.6333 258° West 470 541 38,000  Level Moncton Center
04:03PM 46.5667 -52.8000 254° West 470 541 38,000  Level Moncton Center
04:04PM 46.5667 -52.9000 270° West 470 541 38,000  Level Gander Center
04:05PM 46.5167 -53.0667 246° West 470 541 38,000  Level Gander Center
04:05PM 46.5000 -53.1833 258° West 460 529 38,000  Level Moncton Center
04:06PM 46.4667 -53.3667 255° West 470 541 38,000  Level Moncton Center
04:07PM 46.4500 -53.4500 254° West 470 541 38,000  Level Gander Center
04:08PM 46.4333 -53.6167 262° West 470 541 38,000  Level Gander Center
04:08PM 46.4000 -53.7167 244° Southwest 470 541 38,000  Level Moncton Center
04:09PM 46.3667 -53.9000 255° West 470 541 38,000  Level Moncton Center
04:10PM 46.3333 -54.1000 256° West 470 541 38,000  Level Moncton Center
04:11PM 46.3333 -54.1667 270° West 470 541 38,000  Level Gander Center
04:12PM 46.3000 -54.3667 257° West 470 541 38,000  Level Gander Center
04:12PM 46.2667 -54.4500 240° Southwest 470 541 38,000  Level Moncton Center
04:13PM 46.2333 -54.6500 257° West 480 552 38,000  Level Moncton Center
04:14PM 46.2000 -54.8333 255° West 470 541 38,000  Level Moncton Center
04:15PM 46.1667 -55.0167 255° West 470 541 38,000  Level Moncton Center
04:16PM 46.1333 -55.1833 254° West 470 541 38,000  Level Moncton Center
04:17PM 46.1000 -55.3833 257° West 470 541 38,000  Level Moncton Center
04:18PM 46.0833 -55.4500 250° West 470 541 38,000  Level Gander Center
04:19PM 46.0500 -55.6333 255° West 470 541 38,000  Level Gander Center
04:19PM 46.0500 -55.7333 270° West 460 529 38,000  Level Moncton Center
04:20PM 46.0000 -55.9000 247° West 480 552 38,000  Level Moncton Center
04:21PM 45.9500 -56.1167 252° West 470 541 38,000  Level Moncton Center
04:22PM 45.9333 -56.2833 262° West 470 541 38,000  Level Moncton Center
04:23PM 45.9000 -56.4500 254° West 470 541 38,000  Level Moncton Center
04:24PM 45.8500 -56.6333 249° West 470 541 38,000  Level Moncton Center
04:25PM 45.8167 -56.8000 254° West 470 541 38,000  Level Moncton Center
04:26PM 45.8000 -56.8833 254° West 470 541 38,000  Level Gander Center
04:27PM 45.7833 -57.0500 262° West 470 541 38,000  Level Gander Center
04:27PM 45.7500 -57.1833 250° West 470 541 38,000  Level Moncton Center
04:28PM 45.7333 -57.2500 250° West 470 541 38,000  Level Gander Center
04:29PM 45.7000 -57.4167 254° West 470 541 38,000  Level Gander Center
04:29PM 45.6667 -57.5500 250° West 470 541 38,000  Level Moncton Center
04:30PM 45.6333 -57.7167 254° West 470 541 38,000  Level Moncton Center
04:31PM 45.5833 -57.8833 247° West 470 541 38,000  Level Moncton Center
04:32PM 45.5500 -58.0833 257° West 470 541 38,000  Level Moncton Center
04:33PM 45.5333 -58.1333 245° Southwest 470 541 38,000  Level Gander Center
04:34PM 45.5000 -58.3000 254° West 480 552 38,000  Level Gander Center
04:34PM 45.4667 -58.4333 250° West 470 541 38,000  Level Moncton Center
04:35PM 45.4333 -58.6333 257° West 480 552 38,000  Level Moncton Center
04:36PM 45.3833 -58.8000 247° West 480 552 38,000  Level Moncton Center
04:37PM 45.3500 -58.9667 254° West 480 552 38,000  Level Moncton Center
04:38PM 45.3000 -59.1333 247° West 480 552 38,000  Level Moncton Center
04:40PM 45.2500 -59.3833 254° West 470 541 38,000  Level Gander Center
04:41PM 45.2167 -59.5500 254° West 470 541 38,000  Level Gander Center
04:42PM 45.1667 -59.7500 251° West 470 541 38,000  Level Gander Center
04:43PM 45.1167 -59.9167 247° West 470 541 38,000  Level Gander Center
04:43PM 45.0833 -60.0333 248° West 480 552 38,000  Level Moncton Center
04:44PM 45.0500 -60.2333 257° West 480 552 38,000  Level Moncton Center
04:45PM 45.0000 -60.4000 247° West 480 552 38,000  Level Moncton Center
04:46PM 44.9833 -60.4500 245° Southwest 480 552 38,000  Level Gander Center
04:47PM 44.9333 -60.6167 247° West 480 552 38,000  Level Gander Center
04:47PM 44.9167 -60.7667 261° West 480 552 38,000  Level Moncton Center
04:48PM 44.8667 -60.9333 247° West 480 552 38,000  Level Moncton Center
04:49PM 44.8167 -61.1000 247° West 480 552 38,000  Level Moncton Center
04:50PM 44.7833 -61.2833 256° West 480 552 38,000  Level Moncton Center
04:51PM 44.7333 -61.4500 247° West 480 552 38,000  Level Moncton Center
04:52PM 44.6833 -61.6500 251° West 480 552 38,000  Level Moncton Center
04:53PM 44.6833 -61.7000 270° West 480 552 38,000  Level Gander Center
04:54PM 44.6333 -61.8667 247° West 490 564 38,000  Level Gander Center
04:54PM 44.6000 -62.0000 251° West 480 552 38,000  Level Moncton Center
04:55PM 44.5500 -62.1667 247° West 480 552 38,000  Level Moncton Center
04:56PM 44.5000 -62.3333 247° West 480 552 38,000  Level Moncton Center
04:57PM 44.4500 -62.5167 249° West 480 552 38,000  Level Moncton Center
04:58PM 44.4000 -62.6833 247° West 480 552 38,000  Level Moncton Center
04:59PM 44.3667 -62.8500 254° West 480 552 38,000  Level Moncton Center
05:00PM 44.3167 -63.0500 251° West 480 552 38,000  Level Moncton Center
05:01PM 44.2667 -63.2000 245° Southwest 480 552 38,000  Level Moncton Center
05:02PM 44.2167 -63.4000 251° West 480 552 38,000  Level Moncton Center
05:03PM 44.1667 -63.5500 245° Southwest 480 552 38,000  Level Moncton Center
05:04PM 44.1167 -63.7167 247° West 480 552 38,000  Level Moncton Center
05:05PM 44.0667 -63.9167 251° West 480 552 38,000  Level Moncton Center
05:06PM 44.0167 -64.0667 245° Southwest 480 552 38,000  Level Moncton Center
05:07PM 44.0000 -64.1333 251° West 480 552 38,000  Level Gander Center
05:07PM 43.9667 -64.2500 248° West 480 552 38,000  Level Moncton Center
05:08PM 43.9167 -64.4167 247° West 480 552 38,000  Level Moncton Center
05:09PM 43.8667 -64.6000 249° West 480 552 38,000  Level Moncton Center
05:10PM 43.8167 -64.7667 247° West 480 552 38,000  Level Moncton Center
05:11PM 43.7667 -64.9333 247° West 480 552 38,000  Level Moncton Center
05:12PM 43.7167 -65.1167 249° West 480 552 38,000  Level Moncton Center
05:13PM 43.6667 -65.2667 245° Southwest 480 552 38,000  Level Moncton Center
05:14PM 43.6167 -65.4667 251° West 480 552 38,000  Level Moncton Center
05:15PM 43.5667 -65.6167 245° Southwest 490 564 38,000  Level Moncton Center
05:16PM 43.5167 -65.8000 249° West 490 564 38,000  Level Moncton Center
05:17PM 43.4500 -65.9667 241° Southwest 490 564 38,000  Level Moncton Center
05:18PM 43.4000 -66.1500 249° West 490 564 38,000  Level Moncton Center
05:19PM 43.3500 -66.3333 249° West 490 564 38,000  Level Moncton Center
05:20PM 43.3000 -66.4833 245° Southwest 490 564 38,000  Level Moncton Center
05:21PM 43.2500 -66.6667 250° West 490 564 38,000  Level Moncton Center
05:22PM 43.1833 -66.8333 241° Southwest 490 564 38,000 -60 Level Moncton Center
05:23PM 43.1683 -66.9414 259° West 494 568 37,900  Descending Boston Center
05:24PM 43.1156 -67.1083 247° West 494 568 38,000 60 Climbing Boston Center
05:24PM 43.0833 -67.1667 233° Southwest 490 564 38,000  Level Moncton Center
05:25PM 43.0333 -67.3500 250° West 490 564 38,000  Level Moncton Center
05:26PM 43.0125 -67.4556 255° West 494 568 38,000 -60 Level Boston Center
05:27PM 42.9572 -67.6247 246° West 489 563 37,900 -120 Descending Boston Center
05:27PM 42.9167 -67.6833 227° Southwest 480 552 37,900 60 Level Moncton Center
05:28PM 42.8833 -67.8667 256° West 490 564 38,000  Climbing Moncton Center
05:29PM 42.8167 -68.0167 239° Southwest 490 564 37,900 -60 Descending Moncton Center
05:30PM 42.7667 -68.2000 250° West 490 564 37,900  Level Moncton Center
05:31PM 42.7167 -68.3667 248° West 490 564 37,900  Level Moncton Center
05:32PM 42.6500 -68.5333 242° Southwest 490 564 37,900  Level Moncton Center
05:33PM 42.6314 -68.6608 259° West 488 562 38,000  Climbing Boston Center
05:33PM 42.6000 -68.7000 223° Southwest 500 575 37,900  Descending Moncton Center
05:34PM 42.5333 -68.8833 244° Southwest 500 575 38,000  Climbing Moncton Center
05:35PM 42.5233 -68.9972 263° West 488 562 38,000  Level Boston Center
05:36PM 42.4714 -69.1494 245° Southwest 488 562 38,000  Level Boston Center
05:37PM 42.4178 -69.3125 246° West 488 562 38,000  Level Boston Center
05:38PM 42.3600 -69.4869 246° West 494 568 38,000  Level Boston Center
05:39PM 42.3058 -69.6522 246° West 494 568 38,000  Level Boston Center
05:40PM 42.2475 -69.8372 247° West 488 562 38,000  Level Boston Center
05:41PM 42.1989 -69.9906 247° West 493 567 38,000  Level Boston Center
05:42PM 42.1378 -70.1583 244° Southwest 498 573 38,000  Level Boston Center
05:43PM 42.0783 -70.3256 244° Southwest 498 573 38,000  Level Boston Center
05:44PM 42.0061 -70.4817 238° Southwest 498 573 38,000  Level Boston Center
05:45PM 41.9294 -70.6319 236° Southwest 498 573 38,000  Level Boston Center
05:46PM 41.8547 -70.7844 237° Southwest 498 573 38,000 -60 Level Boston Center
05:47PM 41.7819 -70.9422 238° Southwest 498 573 37,900 -240 Descending Boston Center
05:48PM 41.7067 -71.0942 236° Southwest 498 573 37,600 -1,320 Descending Boston Center
05:49PM 41.6314 -71.2431 236° Southwest 493 567 35,300 -2,700 Descending Boston Center
05:50PM 41.5556 -71.3942 236° Southwest 493 567 32,300 -2,640 Descending Boston Center
05:51PM 41.4819 -71.5394 236° Southwest 488 562 30,100 -2,220 Descending Boston Center
05:52PM 41.4078 -71.6761 234° Southwest 477 549 27,900 -2,160 Descending Boston Center
05:53PM 41.3400 -71.8097 236° Southwest 458 527 25,800 -1,980 Descending Boston Center
05:54PM 41.2761 -71.9431 238° Southwest 445 512 24,000 -1,560 Descending Boston Center
05:55PM 41.2181 -72.0869 242° Southwest 440 506 22,700 -1,980 Descending Boston Center
05:56PM 41.1622 -72.2250 242° Southwest 440 506 20,100 -2,340 Descending Boston Center
05:57PM 41.1019 -72.3739 242° Southwest 430 495 18,100 -2,100 Descending Boston Center
05:58PM 41.0500 -72.5033 242° Southwest 418 481 16,000 -2,040 Descending Boston Center
05:59PM 41.0039 -72.6189 242° Southwest 386 444 14,100 -1,440 Descending Boston Center
06:01PM 40.9500 -72.7667 244° Southwest 307 353 12,500 -900 Descending New York TRACON
06:02PM 40.8833 -72.8500 223° Southwest 309 356 12,000 -540 Descending New York TRACON
06:03PM 40.8167 -72.9167 217° Southwest 304 350 11,500 -840 Descending New York TRACON
06:04PM 40.7500 -72.9667 210° Southwest 301 346 10,400 -1,140 Descending New York TRACON
06:05PM 40.7000 -73.0500 232° Southwest 298 343 9,300 -1,080 Descending New York TRACON
06:06PM 40.6500 -73.1500 237° Southwest 287 330 8,300 -1,080 Descending New York TRACON
06:07PM 40.6000 -73.2333 232° Southwest 286 329 7,200 -1,140 Descending New York TRACON
06:08PM 40.5667 -73.3167 242° Southwest 285 328 6,200 -1,080 Descending New York TRACON
06:09PM 40.5167 -73.4000 232° Southwest 283 326 5,100 -1,020 Descending New York TRACON
06:10PM 40.4833 -73.4833 242° Southwest 277 319 4,100 -1,080 Descending New York TRACON
06:11PM 40.4167 -73.5333 210° Southwest 268 308 3,000 -600 Descending New York TRACON
06:12PM 40.3500 -73.5833 210° Southwest 271 312 3,000  Level New York TRACON
06:13PM 40.2833 -73.6333 210° Southwest 239 275 3,000  Level New York TRACON
06:14PM 40.2333 -73.6833 217° Southwest 236 272 3,000  Level New York TRACON
06:15PM 40.2500 -73.7500 288° West 231 266 3,000  Level New York TRACON
06:16PM 40.2833 -73.8167 303° West 225 259 3,000  Level New York TRACON
06:17PM 40.3333 -73.8833 315° West 225 259 3,000  Level New York TRACON
06:18PM 40.3833 -73.9333 323° Northwest 228 262 3,000  Level New York TRACON
06:19PM 40.4333 -73.9500 346° North 210 242 3,000  Level New York TRACON
06:20PM 40.4833 -73.9667 346° North 179 206 3,000  Level New York TRACON
06:21PM 40.5333 -73.9667 360° North 171 197 3,000 -300 Level New York TRACON
06:22PM 40.5667 -73.9333 37° Northeast 163 188 2,500 -540 Descending New York TRACON